createdAt,value
2022-11-21T00:01:25.811Z,2.90
2022-11-21T00:03:53.841Z,1.20
2022-11-21T00:06:21.314Z,1.30
2022-11-21T00:08:48.730Z,2.20
2022-11-21T00:11:16.745Z,1.20
2022-11-21T00:13:44.433Z,1.20
2022-11-21T00:16:14.313Z,2.30
2022-11-21T00:18:42.489Z,1.20
2022-11-21T00:21:14.966Z,2.80
2022-11-21T00:23:45.302Z,3.10
2022-11-21T00:26:14.024Z,1.30
2022-11-21T00:28:41.745Z,1.20
2022-11-21T00:31:09.135Z,2.10
2022-11-21T00:33:39.607Z,1.70
2022-11-21T00:36:10.320Z,2.20
2022-11-21T00:38:38.282Z,0.70
2022-11-21T00:41:06.172Z,2.10
2022-11-21T00:43:33.694Z,1.00
2022-11-21T00:46:03.072Z,1.50
2022-11-21T00:48:31.733Z,2.30
2022-11-21T00:51:00.866Z,2.30
2022-11-21T00:53:28.928Z,1.90
2022-11-21T00:55:56.180Z,1.90
2022-11-21T00:58:23.575Z,0.80
2022-11-21T01:00:53.852Z,1.70
2022-11-21T01:03:21.271Z,0.90
2022-11-21T01:05:48.907Z,1.50
2022-11-21T01:08:16.185Z,1.00
2022-11-21T01:10:43.368Z,1.70
2022-11-21T01:13:10.761Z,2.40
2022-11-21T01:15:40.584Z,1.00
2022-11-21T01:18:08.037Z,1.40
2022-11-21T01:20:38.802Z,0.90
2022-11-21T01:23:08.631Z,1.80
2022-11-21T01:25:36.870Z,1.20
2022-11-21T01:28:06.688Z,1.10
2022-11-21T01:30:34.102Z,0.80
2022-11-21T01:33:01.574Z,-0.30
2022-11-21T01:35:28.841Z,0.70
2022-11-21T01:37:56.520Z,0.90
2022-11-21T01:40:23.859Z,0.60
2022-11-21T01:42:58.977Z,-0.20
2022-11-21T01:45:48.471Z,0.60
2022-11-21T01:48:16.264Z,0.80
2022-11-21T01:50:43.818Z,0.60
2022-11-21T01:53:11.636Z,0.70
2022-11-21T01:55:39.275Z,2.00
2022-11-21T01:58:06.551Z,2.40
2022-11-21T02:00:42.134Z,1.60
2022-11-21T02:03:14.880Z,1.70
2022-11-21T02:05:42.429Z,0.50
2022-11-21T02:08:18.111Z,0.80
2022-11-21T02:11:04.190Z,1.70
2022-11-21T02:13:31.987Z,0.70
2022-11-21T02:15:59.297Z,0.70
2022-11-21T02:18:26.612Z,1.30
2022-11-21T02:21:00.773Z,0.90
2022-11-21T02:23:57.718Z,1.60
2022-11-21T02:26:27.654Z,0.80
2022-11-21T02:28:55.184Z,1.30
2022-11-21T02:31:22.722Z,1.20
2022-11-21T02:33:51.671Z,1.70
2022-11-21T02:36:44.375Z,0.20
2022-11-21T02:39:27.291Z,0.40
2022-11-21T02:42:24.024Z,1.60
2022-11-21T02:45:22.827Z,0.80
2022-11-21T02:48:00.834Z,0.40
2022-11-21T02:50:34.272Z,1.70
2022-11-21T02:53:01.870Z,1.10
2022-11-21T02:55:29.506Z,0.60
2022-11-21T02:58:04.401Z,1.00
2022-11-21T03:00:33.625Z,1.50
2022-11-21T03:03:01.209Z,0.40
2022-11-21T03:05:29.054Z,1.10
2022-11-21T03:07:56.525Z,1.70
2022-11-21T03:10:24.218Z,1.50
2022-11-21T03:12:51.812Z,0.80
2022-11-21T03:15:19.500Z,1.00
2022-11-21T03:17:49.845Z,0.30
2022-11-21T03:20:19.946Z,1.40
2022-11-21T03:22:47.372Z,1.30
2022-11-21T03:25:14.808Z,1.50
2022-11-21T03:27:42.942Z,0.50
2022-11-21T03:30:11.036Z,0.50
2022-11-21T03:32:38.320Z,-0.10
2022-11-21T03:35:06.326Z,1.60
2022-11-21T03:37:33.683Z,0.30
2022-11-21T03:40:01.203Z,1.40
2022-11-21T03:42:28.588Z,0.80
2022-11-21T03:44:56.036Z,1.60
2022-11-21T03:47:24.743Z,1.00
2022-11-21T03:49:52.178Z,1.60
2022-11-21T03:52:19.900Z,1.00
2022-11-21T03:54:47.269Z,2.20
2022-11-21T03:57:14.561Z,1.00
2022-11-21T03:59:41.958Z,2.30
2022-11-21T04:02:09.422Z,0.40
2022-11-21T04:04:36.799Z,1.30
2022-11-21T04:07:04.080Z,0.40
2022-11-21T04:09:31.502Z,-0.60
2022-11-21T04:11:58.722Z,0.60
2022-11-21T04:14:26.311Z,2.10
2022-11-21T04:16:59.702Z,2.20
2022-11-21T04:19:27.054Z,0.40
2022-11-21T04:21:54.296Z,1.40
2022-11-21T04:24:21.759Z,1.80
2022-11-21T04:26:49.096Z,1.60
2022-11-21T04:29:16.417Z,1.50
2022-11-21T04:31:43.785Z,1.10
2022-11-21T04:34:11.063Z,2.00
2022-11-21T04:36:38.522Z,1.50
2022-11-21T04:39:05.853Z,1.60
2022-11-21T04:41:33.141Z,0.50
2022-11-21T04:44:00.803Z,1.20
2022-11-21T04:46:28.105Z,1.60
2022-11-21T04:48:55.373Z,1.70
2022-11-21T04:51:22.692Z,2.30
2022-11-21T04:53:49.989Z,1.60
2022-11-21T04:56:17.465Z,1.20
2022-11-21T04:58:45.103Z,0.50
2022-11-21T05:01:12.935Z,0.40
2022-11-21T05:03:40.672Z,2.00
2022-11-21T05:06:08.434Z,0.60
2022-11-21T05:08:35.792Z,0.80
2022-11-21T05:11:21.515Z,1.00
2022-11-21T05:13:48.909Z,1.00
2022-11-21T05:16:16.193Z,0.20
2022-11-21T05:18:43.534Z,1.20
2022-11-21T05:21:10.947Z,1.30
2022-11-21T05:23:38.437Z,0.60
2022-11-21T05:26:06.117Z,1.40
2022-11-21T05:28:33.536Z,0.30
2022-11-21T05:31:00.835Z,1.50
2022-11-21T05:33:28.251Z,1.00
2022-11-21T05:35:55.546Z,0.70
2022-11-21T05:38:22.856Z,1.00
2022-11-21T05:40:53.124Z,0.00
2022-11-21T05:43:38.770Z,1.40
2022-11-21T05:46:06.167Z,0.60
2022-11-21T05:48:36.695Z,-0.10
2022-11-21T05:51:05.193Z,1.10
2022-11-21T05:53:32.880Z,1.30
2022-11-21T05:56:05.833Z,1.50
2022-11-21T05:58:33.696Z,0.00
2022-11-21T06:01:01.452Z,1.00
2022-11-21T06:03:33.039Z,-1.50
2022-11-21T06:06:04.103Z,0.10
2022-11-21T06:08:50.394Z,0.00
2022-11-21T06:11:17.708Z,-0.20
2022-11-21T06:13:47.711Z,0.00
2022-11-21T06:16:18.375Z,-0.40
2022-11-21T06:18:47.648Z,0.90
2022-11-21T06:21:16.333Z,0.10
2022-11-21T06:23:44.222Z,0.70
2022-11-21T06:26:17.044Z,-0.10
2022-11-21T06:28:44.885Z,1.20
2022-11-21T06:31:14.823Z,-0.30
2022-11-21T06:33:42.785Z,0.00
2022-11-21T06:36:15.846Z,1.70
2022-11-21T06:38:44.288Z,0.80
2022-11-21T06:41:12.862Z,1.00
2022-11-21T06:43:43.823Z,-0.20
2022-11-21T06:46:11.565Z,0.90
2022-11-21T06:48:39.881Z,-0.20
2022-11-21T06:51:17.677Z,0.10
2022-11-21T06:53:45.507Z,0.10
2022-11-21T06:56:12.889Z,0.00
2022-11-21T06:58:40.338Z,-0.30
2022-11-21T07:01:10.085Z,1.10
2022-11-21T07:03:38.332Z,1.40
2022-11-21T07:06:21.731Z,0.20
2022-11-21T07:09:04.958Z,0.20
2022-11-21T07:11:39.358Z,0.10
2022-11-21T07:14:09.252Z,0.20
2022-11-21T07:16:37.085Z,0.10
2022-11-21T07:19:04.450Z,0.30
2022-11-21T07:21:31.771Z,0.10
2022-11-21T07:23:59.114Z,0.30
2022-11-21T07:26:27.319Z,1.50
2022-11-21T09:07:10.212Z,1.80
2022-11-21T09:09:39.252Z,2.80
2022-11-21T09:12:08.243Z,1.70
2022-11-21T09:14:55.943Z,1.70
2022-11-21T09:17:42.708Z,1.80
2022-11-21T09:20:10.779Z,2.00
2022-11-21T09:22:38.205Z,2.20
2022-11-21T09:25:06.396Z,3.60
2022-11-21T09:27:34.232Z,2.30
2022-11-21T09:30:01.617Z,2.40
2022-11-21T09:32:29.097Z,1.90
2022-11-21T09:34:59.329Z,2.30
2022-11-21T09:37:26.676Z,2.30
2022-11-21T09:39:54.086Z,2.90
2022-11-21T09:42:39.851Z,3.30
2022-11-21T09:45:19.791Z,2.40
2022-11-21T09:47:52.053Z,2.40
2022-11-21T09:50:22.482Z,2.40
2022-11-21T09:53:22.372Z,2.60
2022-11-21T09:55:57.400Z,2.50
2022-11-21T09:58:31.578Z,4.10
2022-11-21T10:00:59.348Z,2.50
2022-11-21T10:03:41.683Z,3.90
2022-11-21T10:06:22.882Z,2.60
2022-11-21T10:09:44.677Z,2.70
2022-11-21T10:12:35.918Z,2.60
2022-11-21T10:15:08.773Z,2.60
2022-11-21T10:17:43.541Z,2.70
2022-11-21T10:20:33.880Z,3.00
2022-11-21T10:23:27.567Z,3.30
2022-11-21T10:26:25.045Z,3.00
2022-11-21T10:29:02.070Z,3.00
2022-11-21T10:31:36.227Z,3.00
2022-11-21T10:34:10.353Z,3.10
2022-11-21T10:36:41.364Z,3.00
2022-11-21T10:39:38.256Z,3.00
2022-11-21T10:42:35.068Z,3.50
2022-11-21T10:45:19.327Z,3.20
2022-11-21T10:47:49.340Z,3.00
2022-11-21T10:50:41.754Z,3.20
2022-11-21T10:53:43.138Z,3.20
2022-11-21T10:56:15.117Z,3.30
2022-11-21T10:58:45.116Z,3.20
2022-11-21T11:01:30.560Z,3.90
2022-11-21T11:04:43.833Z,3.40
2022-11-21T11:07:30.348Z,3.40
2022-11-21T11:10:27.493Z,3.50
2022-11-21T11:16:11.345Z,3.40
2022-11-21T11:18:47.316Z,3.40
2022-11-21T11:21:19.929Z,2.90
2022-11-21T11:23:49.170Z,3.50
2022-11-21T11:26:29.573Z,4.00
2022-11-21T11:29:15.298Z,3.50
2022-11-21T11:31:54.772Z,2.90
2022-11-21T11:34:23.545Z,3.10
2022-11-21T11:36:53.717Z,3.50
2022-11-21T11:39:41.423Z,3.40
2022-11-21T11:42:59.406Z,2.60
2022-11-21T11:46:07.381Z,3.40
2022-11-21T11:48:56.606Z,3.40
2022-11-21T11:51:40.387Z,3.40
2022-11-21T11:54:18.991Z,3.50
2022-11-21T11:56:47.487Z,3.50
2022-11-21T11:59:51.520Z,3.60
2022-11-21T12:02:26.744Z,3.60
2022-11-21T12:05:07.593Z,3.70
2022-11-21T12:08:38.909Z,4.00
2022-11-21T12:11:03.112Z,4.60
2022-11-21T12:13:31.693Z,3.70
2022-11-21T12:16:11.929Z,5.60
2022-11-21T12:18:48.226Z,4.00
2022-11-21T12:21:20.890Z,4.10
2022-11-21T12:24:09.983Z,4.00
2022-11-21T12:26:47.140Z,4.00
2022-11-21T12:29:25.194Z,3.80
2022-11-21T12:32:17.002Z,4.10
2022-11-21T12:34:54.338Z,4.10
2022-11-21T12:37:33.690Z,4.10
2022-11-21T12:40:09.926Z,4.00
2022-11-21T12:43:07.998Z,4.10
2022-11-21T12:46:09.673Z,4.10
2022-11-21T12:49:54.725Z,4.20
2022-11-21T12:52:57.131Z,4.40
2022-11-21T12:55:40.528Z,4.60
2022-11-21T12:58:26.672Z,4.50
2022-11-21T13:01:03.106Z,4.50
2022-11-21T13:03:35.890Z,4.50
2022-11-21T13:06:05.561Z,4.50
2022-11-21T13:08:37.005Z,4.70
2022-11-21T13:11:35.281Z,4.60
2022-11-21T13:14:13.149Z,4.50
2022-11-21T13:16:48.182Z,4.40
2022-11-21T13:19:42.471Z,4.60
2022-11-21T13:22:37.819Z,4.70
2022-11-21T13:25:26.988Z,4.60
2022-11-21T13:27:55.199Z,4.60
2022-11-21T13:30:24.630Z,4.10
2022-11-21T13:32:55.581Z,4.50
2022-11-21T13:35:22.968Z,4.80
2022-11-21T13:37:50.366Z,4.70
2022-11-21T13:40:26.818Z,4.70
2022-11-21T13:43:32.670Z,4.40
2022-11-21T13:46:01.480Z,4.70
2022-11-21T13:48:32.033Z,4.70
2022-11-21T13:51:21.299Z,4.80
2022-11-21T13:54:26.236Z,4.70
2022-11-21T13:57:12.280Z,4.70
2022-11-21T14:00:07.256Z,4.40
2022-11-21T14:03:18.923Z,4.60
2022-11-21T14:06:07.795Z,4.30
2022-11-21T14:08:35.699Z,4.40
2022-11-21T14:11:36.968Z,4.30
2022-11-21T14:14:04.388Z,4.30
2022-11-21T14:16:35.367Z,4.30
2022-11-21T14:19:03.905Z,3.10
2022-11-21T14:21:33.212Z,4.30
2022-11-21T14:24:13.451Z,4.20
2022-11-21T14:26:48.241Z,4.20
2022-11-21T14:29:26.772Z,4.20
2022-11-21T14:31:54.705Z,4.20
2022-11-21T14:34:31.015Z,4.10
2022-11-21T14:37:01.417Z,4.10
2022-11-21T14:39:38.983Z,4.40
2022-11-21T14:42:15.206Z,4.20
2022-11-21T14:44:43.436Z,4.00
2022-11-21T14:47:25.716Z,3.80
2022-11-21T14:49:58.697Z,4.10
2022-11-21T14:52:33.074Z,4.10
2022-11-21T14:57:52.254Z,4.10
2022-11-21T15:03:22.362Z,4.00
2022-11-21T15:06:04.470Z,4.00
2022-11-21T15:11:26.214Z,4.20
2022-11-21T15:14:14.908Z,3.90
2022-11-21T15:16:44.196Z,4.10
2022-11-21T15:19:11.562Z,4.00
2022-11-21T15:21:46.453Z,4.00
2022-11-21T15:24:19.368Z,4.00
2022-11-21T15:26:47.363Z,4.10
2022-11-21T15:29:23.089Z,4.00
2022-11-21T15:32:16.738Z,4.00
2022-11-21T15:34:44.336Z,4.00
2022-11-21T15:37:18.766Z,4.00
2022-11-21T15:39:48.723Z,4.00
2022-11-21T15:42:34.996Z,4.00
2022-11-21T15:45:26.404Z,4.00
2022-11-21T15:47:53.865Z,4.10
2022-11-21T15:50:24.097Z,4.10
2022-11-21T15:52:52.445Z,4.10
2022-11-21T15:55:30.410Z,4.10
2022-11-21T15:57:57.686Z,4.10
2022-11-21T16:00:24.734Z,4.10
2022-11-21T16:02:51.842Z,4.10
2022-11-21T16:05:18.795Z,4.10
2022-11-21T16:07:45.815Z,4.10
2022-11-21T16:10:19.749Z,4.20
2022-11-21T16:12:48.790Z,4.10
2022-11-21T16:15:15.855Z,4.10
2022-11-21T16:17:45.086Z,4.10
2022-11-21T16:20:12.213Z,4.10
2022-11-21T16:22:44.134Z,4.00
2022-11-21T16:25:14.421Z,4.00
2022-11-21T16:27:41.769Z,4.00
2022-11-21T16:30:09.187Z,4.00
2022-11-21T16:32:36.193Z,4.00
2022-11-21T16:35:03.657Z,4.00
2022-11-21T16:37:34.554Z,4.00
2022-11-21T16:40:02.039Z,4.10
2022-11-21T16:42:29.166Z,4.10
2022-11-21T16:44:56.352Z,4.00
2022-11-21T16:47:23.732Z,4.10
2022-11-21T16:49:51.089Z,4.10
2022-11-21T16:52:18.367Z,4.10
2022-11-21T16:54:45.404Z,4.00
2022-11-21T16:57:12.644Z,4.10
2022-11-21T16:59:40.066Z,4.00
2022-11-21T17:02:08.032Z,4.00
2022-11-21T17:04:36.689Z,4.00
2022-11-21T17:07:03.853Z,4.00
2022-11-21T17:09:31.209Z,4.00
2022-11-21T17:11:59.361Z,4.00
2022-11-21T17:14:27.118Z,4.00
2022-11-21T17:16:54.792Z,4.00
2022-11-21T17:19:22.067Z,3.90
2022-11-21T17:21:49.104Z,3.80
2022-11-21T17:24:16.293Z,3.70
2022-11-21T17:26:43.522Z,3.70
2022-11-21T17:29:10.559Z,3.60
2022-11-21T17:31:37.530Z,3.60
2022-11-21T17:34:04.995Z,3.60
2022-11-21T17:36:34.759Z,3.50
2022-11-21T17:39:02.707Z,3.50
2022-11-21T17:41:29.887Z,3.40
2022-11-21T17:43:58.162Z,3.40
2022-11-21T17:46:27.127Z,3.40
2022-11-21T17:48:58.221Z,3.40
2022-11-21T17:51:35.164Z,3.30
2022-11-21T17:54:02.786Z,3.30
2022-11-21T17:56:32.711Z,3.30
2022-11-21T17:59:00.626Z,3.40
2022-11-21T18:01:28.799Z,3.30
2022-11-21T18:03:58.462Z,3.20
2022-11-21T18:06:27.834Z,3.40
2022-11-21T18:08:57.237Z,3.30
2022-11-21T18:11:27.761Z,3.30
2022-11-21T18:13:54.921Z,3.30
2022-11-21T18:16:25.156Z,3.20
2022-11-21T18:18:53.251Z,3.30
2022-11-21T18:21:25.606Z,3.30
2022-11-21T18:23:53.863Z,3.20
2022-11-21T18:26:26.749Z,3.60
2022-11-21T18:29:20.493Z,3.30
2022-11-21T18:31:46.166Z,3.30
2022-11-21T18:34:13.261Z,3.30
2022-11-21T18:36:41.571Z,3.30
2022-11-21T18:39:14.848Z,3.30
2022-11-21T18:41:43.268Z,3.30
2022-11-21T18:44:11.384Z,3.30
2022-11-21T18:46:41.014Z,3.30
2022-11-21T18:49:08.751Z,3.30
2022-11-21T18:51:36.723Z,3.40
2022-11-21T18:54:08.763Z,3.40
2022-11-21T18:56:37.954Z,3.40
2022-11-21T18:59:06.895Z,3.40
2022-11-21T19:01:36.699Z,3.40
2022-11-21T19:04:05.341Z,3.40
2022-11-21T19:06:32.741Z,3.40
2022-11-21T19:09:00.243Z,3.40
2022-11-21T19:11:30.958Z,3.50
2022-11-21T19:14:00.864Z,3.60
2022-11-21T19:16:31.601Z,3.50
2022-11-21T19:19:32.971Z,3.50
2022-11-21T19:21:47.607Z,3.50
2022-11-21T19:24:15.894Z,3.50
2022-11-21T19:26:43.207Z,3.50
2022-11-21T19:29:11.788Z,3.50
2022-11-21T19:31:45.372Z,3.40
2022-11-21T19:34:14.558Z,3.40
2022-11-21T19:36:42.401Z,3.40
2022-11-21T19:39:10.309Z,3.40
2022-11-21T19:41:38.039Z,3.50
2022-11-21T19:44:05.633Z,3.50
2022-11-21T19:46:35.437Z,3.50
2022-11-21T19:49:03.792Z,3.50
2022-11-21T19:51:40.713Z,3.40
2022-11-21T19:54:10.788Z,3.40
2022-11-21T19:56:38.704Z,3.40
2022-11-21T19:59:06.404Z,3.40
2022-11-21T20:01:34.976Z,3.60
2022-11-21T20:04:04.955Z,3.40
2022-11-21T20:06:37.087Z,3.50
2022-11-21T20:09:08.932Z,3.50
2022-11-21T20:11:37.325Z,3.50
2022-11-21T20:14:04.998Z,3.40
2022-11-21T20:16:38.153Z,3.50
2022-11-21T20:19:08.982Z,3.50
2022-11-21T20:21:38.259Z,3.40
2022-11-21T20:24:06.743Z,3.40
2022-11-21T20:26:35.914Z,3.40
2022-11-21T20:29:04.849Z,3.40
2022-11-21T20:31:34.601Z,3.40
2022-11-21T20:34:05.554Z,3.40
2022-11-21T20:36:35.345Z,3.40
2022-11-21T20:39:06.617Z,3.40
2022-11-21T20:41:37.263Z,3.40
2022-11-21T20:46:55.266Z,3.30
2022-11-21T20:49:22.972Z,3.30
2022-11-21T20:53:36.619Z,3.30
2022-11-21T20:54:38.919Z,3.20
2022-11-21T20:57:10.405Z,3.30
2022-11-21T20:59:44.673Z,3.30
2022-11-21T21:02:15.036Z,3.30
2022-11-21T21:04:42.819Z,3.30
2022-11-21T21:07:13.451Z,3.30
2022-11-21T21:09:40.779Z,3.30
2022-11-21T21:12:08.003Z,3.30
2022-11-21T21:14:35.072Z,3.30
2022-11-21T21:17:02.068Z,3.40
2022-11-21T21:19:29.363Z,3.40
2022-11-21T21:21:56.545Z,3.40
2022-11-21T21:24:23.480Z,3.40
2022-11-21T21:26:50.572Z,3.90
2022-11-21T21:29:20.981Z,3.30
2022-11-21T21:31:52.630Z,3.30
2022-11-21T21:34:21.433Z,3.30
2022-11-21T21:36:48.761Z,3.40
2022-11-21T21:39:15.811Z,3.30
2022-11-21T21:41:47.351Z,3.30
2022-11-21T21:44:15.379Z,3.30
2022-11-21T21:46:42.664Z,3.30
2022-11-21T21:49:09.775Z,3.30
2022-11-21T21:51:37.652Z,3.40
2022-11-21T21:54:04.826Z,3.40
2022-11-21T21:56:32.303Z,3.30
2022-11-21T21:58:59.802Z,3.30
2022-11-21T22:01:32.141Z,3.30
2022-11-21T22:04:01.741Z,3.30
2022-11-21T22:06:29.421Z,3.20
2022-11-21T22:08:56.718Z,3.80
2022-11-21T22:11:26.396Z,3.20
2022-11-21T22:13:55.683Z,3.30
2022-11-21T22:16:23.541Z,3.30
2022-11-21T22:18:51.524Z,3.20
2022-11-21T22:21:25.549Z,3.30
2022-11-21T22:26:39.898Z,3.20
2022-11-21T22:29:07.380Z,3.20
2022-11-21T22:31:34.458Z,3.20
2022-11-21T22:34:01.978Z,3.30
2022-11-21T22:36:29.366Z,3.20
2022-11-21T22:38:56.745Z,3.20
2022-11-21T22:41:26.111Z,3.10
2022-11-21T22:43:58.178Z,3.10
2022-11-21T22:46:30.146Z,3.20
2022-11-21T22:48:57.716Z,3.10
2022-11-21T22:51:26.750Z,3.10
2022-11-21T22:53:53.836Z,3.10
2022-11-21T22:56:23.269Z,3.10
2022-11-21T22:58:50.778Z,3.20
2022-11-21T23:01:25.703Z,3.10
2022-11-21T23:03:53.288Z,3.10
2022-11-21T23:06:23.741Z,3.20
2022-11-21T23:08:52.493Z,3.10
2022-11-21T23:11:22.903Z,3.10
2022-11-21T23:13:50.340Z,3.10
2022-11-21T23:16:18.222Z,3.10
2022-11-21T23:18:45.837Z,3.10
2022-11-21T23:21:13.961Z,3.20
2022-11-21T23:23:41.232Z,3.20
2022-11-21T23:26:08.275Z,3.20
2022-11-21T23:28:35.550Z,3.20
2022-11-21T23:31:02.643Z,3.10
2022-11-21T23:33:29.803Z,3.10
2022-11-21T23:35:56.835Z,3.00
2022-11-21T23:38:23.994Z,3.10
2022-11-21T23:40:51.056Z,3.40
2022-11-21T23:43:18.894Z,3.40
2022-11-21T23:45:53.348Z,3.10
2022-11-21T23:48:21.322Z,3.10
2022-11-21T23:50:51.000Z,3.10
2022-11-21T23:53:19.152Z,3.10
2022-11-21T23:55:46.869Z,3.10
2022-11-21T23:58:14.405Z,3.00
